createdAt,value
2019-04-01T04:00:39.988Z,99.90
2019-04-01T04:03:09.196Z,99.90
2019-04-01T04:05:38.297Z,99.90
2019-04-01T04:08:07.313Z,99.90
2019-04-01T04:10:36.197Z,99.90
2019-04-01T04:13:05.372Z,99.90
2019-04-01T04:15:34.583Z,99.90
2019-04-01T04:18:03.751Z,99.90
2019-04-01T04:20:32.612Z,99.90
2019-04-01T04:23:01.435Z,99.90
2019-04-01T04:25:30.856Z,99.90
2019-04-01T04:27:59.721Z,99.90
2019-04-01T04:30:28.586Z,99.90
2019-04-01T04:32:57.479Z,99.90
2019-04-01T04:35:26.257Z,99.90
2019-04-01T04:37:55.178Z,99.90
2019-04-01T04:40:24.472Z,99.90
2019-04-01T04:42:54.232Z,99.90
2019-04-01T04:45:23.114Z,99.90
2019-04-01T04:47:51.988Z,99.90
2019-04-01T04:50:20.888Z,99.90
2019-04-01T04:52:50.465Z,99.90
2019-04-01T04:55:19.393Z,99.90
2019-04-01T04:57:49.112Z,99.90
2019-04-01T05:00:19.452Z,99.90
2019-04-01T05:02:48.664Z,99.90
2019-04-01T05:05:17.946Z,99.90
2019-04-01T05:07:47.704Z,99.90
2019-04-01T05:10:17.255Z,99.90
2019-04-01T05:12:47.163Z,99.90
2019-04-01T05:15:16.214Z,99.90
2019-04-01T05:17:45.419Z,99.90
2019-04-01T05:20:16.656Z,99.90
2019-04-01T05:23:05.357Z,99.90
2019-04-01T05:25:35.122Z,99.90
2019-04-01T05:28:04.186Z,99.90
2019-04-01T05:30:36.680Z,99.90
2019-04-01T05:33:05.891Z,99.90
2019-04-01T05:35:36.476Z,99.90
2019-04-01T05:38:06.864Z,99.90
2019-04-01T05:40:36.188Z,99.90
2019-04-01T05:43:05.268Z,99.90
2019-04-01T05:45:34.708Z,99.90
2019-04-01T05:48:03.754Z,99.90
2019-04-01T05:50:33.468Z,99.90
2019-04-01T05:53:03.040Z,99.90
2019-04-01T05:55:32.331Z,99.90
2019-04-01T05:58:01.744Z,99.90
2019-04-01T06:00:35.900Z,99.90
2019-04-01T06:03:04.939Z,99.90
2019-04-01T06:05:33.793Z,99.90
2019-04-01T06:08:03.536Z,99.90
2019-04-01T06:10:32.746Z,99.90
2019-04-01T06:13:02.028Z,99.90
2019-04-01T06:15:31.265Z,99.90
2019-04-01T06:18:00.221Z,99.50
2019-04-01T06:20:29.531Z,99.30
2019-04-01T06:22:59.081Z,99.90
2019-04-01T06:25:28.090Z,99.60
2019-04-01T06:27:57.429Z,99.40
2019-04-01T06:30:26.393Z,99.80
2019-04-01T06:32:55.824Z,99.30
2019-04-01T06:35:24.706Z,99.10
2019-04-01T06:37:53.631Z,99.10
2019-04-01T06:40:22.443Z,99.10
2019-04-01T06:42:51.622Z,98.60
2019-04-01T06:45:20.570Z,99.10
2019-04-01T06:47:49.873Z,98.60
2019-04-01T06:50:18.987Z,98.70
2019-04-01T06:52:47.784Z,98.50
2019-04-01T06:55:16.860Z,98.80
2019-04-01T06:57:45.675Z,98.90
2019-04-01T07:00:15.332Z,99.30
2019-04-01T07:02:44.447Z,98.30
2019-04-01T07:05:13.413Z,98.10
2019-04-01T07:07:42.736Z,97.70
2019-04-01T07:10:12.190Z,97.60
2019-04-01T07:12:41.999Z,97.40
2019-04-01T07:15:11.505Z,97.20
2019-04-01T07:17:40.291Z,97.30
2019-04-01T07:20:09.441Z,97.20
2019-04-01T07:22:38.844Z,97.30
2019-04-01T07:25:07.922Z,96.80
2019-04-01T07:30:11.764Z,97.50
2019-04-01T07:32:40.951Z,96.90
2019-04-01T07:35:10.120Z,96.40
2019-04-01T07:37:39.552Z,96.90
2019-04-01T07:40:09.392Z,95.90
2019-04-01T07:42:38.972Z,96.20
2019-04-01T07:45:08.607Z,96.40
2019-04-01T07:47:37.841Z,96.30
2019-04-01T07:50:07.462Z,96.40
2019-04-01T07:52:36.283Z,95.80
2019-04-01T07:55:05.893Z,96.30
2019-04-01T07:57:34.961Z,96.30
2019-04-01T08:00:04.124Z,96.10
2019-04-01T08:02:33.304Z,95.60
2019-04-01T08:05:02.197Z,95.60
2019-04-01T08:07:31.452Z,95.40
2019-04-01T08:10:00.599Z,95.40
2019-04-01T08:12:29.457Z,94.80
2019-04-01T08:14:58.840Z,95.10
2019-04-01T08:17:27.873Z,94.80
2019-04-01T08:19:56.776Z,94.80
2019-04-01T08:22:25.945Z,94.70
2019-04-01T08:24:55.430Z,94.00
2019-04-01T08:27:24.672Z,94.00
2019-04-01T08:29:53.820Z,93.70
2019-04-01T08:32:23.585Z,94.40
2019-04-01T08:34:52.724Z,94.00
2019-04-01T08:37:22.233Z,93.80
2019-04-01T08:39:51.355Z,94.00
2019-04-01T08:42:20.555Z,94.10
2019-04-01T08:44:49.673Z,93.70
2019-04-01T08:47:18.699Z,93.80
2019-04-01T08:49:47.730Z,94.10
2019-04-01T08:52:16.760Z,93.40
2019-04-01T08:54:45.701Z,92.80
2019-04-01T08:57:15.812Z,93.30
2019-04-01T08:59:45.111Z,93.00
2019-04-01T09:02:18.201Z,92.00
2019-04-01T09:04:45.036Z,92.50
2019-04-01T09:07:13.912Z,92.20
2019-04-01T09:09:42.946Z,92.30
2019-04-01T09:12:12.226Z,91.20
2019-04-01T09:14:41.579Z,90.80
2019-04-01T09:17:10.715Z,91.40
2019-04-01T09:19:39.808Z,92.10
2019-04-01T09:22:08.687Z,91.50
2019-04-01T09:24:37.548Z,90.90
2019-04-01T09:27:06.626Z,90.20
2019-04-01T09:29:36.344Z,88.90
2019-04-01T09:32:05.707Z,87.50
2019-04-01T09:34:35.140Z,87.60
2019-04-01T09:37:03.928Z,86.10
2019-04-01T09:39:33.187Z,86.90
2019-04-01T09:42:01.984Z,85.10
2019-04-01T09:44:36.964Z,85.80
2019-04-01T09:47:02.067Z,85.80
2019-04-01T09:49:30.957Z,81.00
2019-04-01T09:52:03.644Z,78.60
2019-04-01T09:54:30.637Z,76.50
2019-04-01T09:56:59.818Z,78.00
2019-04-01T09:59:28.792Z,77.20
2019-04-01T10:01:57.746Z,76.50
2019-04-01T10:04:26.568Z,76.20
2019-04-01T10:06:55.632Z,76.40
2019-04-01T10:09:25.075Z,76.60
2019-04-01T10:11:54.209Z,74.40
2019-04-01T10:14:23.592Z,74.10
2019-04-01T10:16:52.500Z,75.10
2019-04-01T10:19:21.659Z,72.10
2019-04-01T10:21:50.761Z,73.20
2019-04-01T10:24:20.170Z,71.50
2019-04-01T10:26:49.675Z,72.50
2019-04-01T10:29:18.551Z,72.80
2019-04-01T10:31:47.360Z,73.50
2019-04-01T10:34:16.165Z,73.50
2019-04-01T10:36:45.261Z,73.50
2019-04-01T10:39:14.124Z,73.30
2019-04-01T10:41:42.923Z,71.30
2019-04-01T10:44:12.208Z,71.00
2019-04-01T10:46:41.431Z,71.00
2019-04-01T10:49:10.602Z,71.10
2019-04-01T10:51:39.522Z,70.50
2019-04-01T10:54:08.451Z,70.80
2019-04-01T10:56:37.364Z,71.20
2019-04-01T10:59:06.490Z,68.10
2019-04-01T11:01:35.501Z,69.60
2019-04-01T11:04:04.526Z,68.70
2019-04-01T11:06:33.594Z,67.70
2019-04-01T11:09:02.531Z,66.70
2019-04-01T11:11:31.789Z,67.40
2019-04-01T11:14:00.654Z,67.70
2019-04-01T11:16:31.703Z,66.60
2019-04-01T11:19:00.285Z,63.80
2019-04-01T11:21:29.073Z,64.90
2019-04-01T11:23:57.880Z,66.60
2019-04-01T11:26:26.675Z,65.30
2019-04-01T11:28:56.117Z,65.40
2019-04-01T11:31:25.197Z,66.30
2019-04-01T11:33:54.524Z,66.00
2019-04-01T11:36:23.417Z,65.80
2019-04-01T11:38:52.844Z,65.60
2019-04-01T11:41:21.477Z,65.80
2019-04-01T11:43:50.794Z,66.10
2019-04-01T11:46:22.517Z,66.00
2019-04-01T11:48:52.150Z,66.50
2019-04-01T11:51:32.416Z,66.40
2019-04-01T11:53:51.953Z,66.20
2019-04-01T11:56:20.764Z,66.00
2019-04-01T11:58:49.683Z,65.30
2019-04-01T12:01:18.504Z,64.70
2019-04-01T12:03:47.649Z,65.40
2019-04-01T12:06:16.639Z,66.50
2019-04-01T12:08:46.127Z,65.60
2019-04-01T12:11:15.012Z,65.20
2019-04-01T12:13:44.303Z,66.50
2019-04-01T12:16:14.157Z,65.80
2019-04-01T12:18:44.670Z,65.90
2019-04-01T12:21:13.623Z,67.20
2019-04-01T12:23:42.435Z,65.30
2019-04-01T12:26:15.282Z,66.00
2019-04-01T12:28:43.621Z,64.60
2019-04-01T12:31:13.102Z,64.40
2019-04-01T12:33:42.133Z,65.10
2019-04-01T12:36:11.704Z,63.10
2019-04-01T12:38:40.971Z,64.70
2019-04-01T12:41:10.449Z,64.40
2019-04-01T12:43:39.631Z,64.10
2019-04-01T12:46:08.796Z,63.80
2019-04-01T12:48:38.820Z,64.00
2019-04-01T12:51:08.229Z,64.10
2019-04-01T12:53:37.421Z,64.50
2019-04-01T12:56:06.419Z,64.80
2019-04-01T12:58:35.217Z,63.90
2019-04-01T13:01:04.276Z,62.40
2019-04-01T13:03:33.503Z,62.40
2019-04-01T13:06:02.719Z,62.00
2019-04-01T13:08:31.717Z,62.50
2019-04-01T13:11:00.825Z,62.70
2019-04-01T13:13:29.606Z,62.40
2019-04-01T13:15:58.666Z,62.90
2019-04-01T13:18:28.264Z,63.50
2019-04-01T13:20:57.381Z,62.80
2019-04-01T13:23:26.495Z,62.50
2019-04-01T13:25:55.753Z,62.10
2019-04-01T13:28:26.015Z,62.20
2019-04-01T13:30:55.641Z,61.20
2019-04-01T13:33:24.785Z,62.50
2019-04-01T13:35:53.996Z,60.60
2019-04-01T13:38:23.199Z,60.90
2019-04-01T13:40:52.423Z,61.30
2019-04-01T13:43:21.316Z,61.30
2019-04-01T13:45:50.766Z,59.40
2019-04-01T13:48:19.881Z,61.00
2019-04-01T13:50:48.748Z,60.80
2019-04-01T13:53:17.544Z,59.80
2019-04-01T13:55:47.533Z,60.90
2019-04-01T13:58:17.773Z,60.50
2019-04-01T14:00:47.381Z,60.20
2019-04-01T14:03:16.708Z,61.10
2019-04-01T14:05:45.636Z,60.10
2019-04-01T14:08:14.768Z,61.10
2019-04-01T14:10:43.636Z,60.60
2019-04-01T14:13:13.164Z,59.70
2019-04-01T14:15:41.960Z,59.90
2019-04-01T14:18:11.012Z,59.90
2019-04-01T14:20:40.412Z,60.50
2019-04-01T14:23:09.464Z,61.00
2019-04-01T14:25:38.344Z,60.70
2019-04-01T14:28:07.151Z,60.60
2019-04-01T14:30:36.399Z,60.10
2019-04-01T14:33:05.938Z,60.50
2019-04-01T14:35:35.994Z,60.60
2019-04-01T14:38:05.072Z,61.00
2019-04-01T14:40:34.128Z,60.00
2019-04-01T14:43:03.087Z,61.10
2019-04-01T14:45:31.976Z,59.90
2019-04-01T14:48:01.599Z,60.20
2019-04-01T14:50:30.979Z,59.70
2019-04-01T14:53:00.320Z,59.90
2019-04-01T14:55:29.183Z,59.30
2019-04-01T14:58:00.346Z,59.10
2019-04-01T15:00:28.643Z,59.30
2019-04-01T15:02:57.762Z,58.80
2019-04-01T15:05:26.639Z,58.60
2019-04-01T15:07:56.084Z,59.10
2019-04-01T15:10:24.876Z,59.20
2019-04-01T15:13:05.166Z,58.80
2019-04-01T15:15:24.936Z,58.60
2019-04-01T15:17:54.104Z,58.80
2019-04-01T15:20:22.957Z,58.50
2019-04-01T15:22:53.135Z,59.10
2019-04-01T15:25:22.747Z,59.00
2019-04-01T15:27:52.252Z,59.20
2019-04-01T15:30:21.132Z,59.30
2019-04-01T15:32:50.367Z,59.90
2019-04-01T15:35:20.232Z,60.00
2019-04-01T15:37:49.021Z,59.60
2019-04-01T15:40:18.599Z,60.70
2019-04-01T15:42:47.873Z,59.40
2019-04-01T15:45:17.343Z,58.60
2019-04-01T15:47:46.150Z,58.80
2019-04-01T15:50:27.803Z,59.10
2019-04-01T15:52:47.090Z,59.10
2019-04-01T15:55:16.372Z,59.30
2019-04-01T15:57:45.480Z,58.70
2019-04-01T16:00:14.600Z,58.40
2019-04-01T16:02:43.881Z,57.80
2019-04-01T16:05:13.177Z,58.30
2019-04-01T16:07:42.197Z,58.60
2019-04-01T16:10:11.240Z,58.50
2019-04-01T16:12:40.336Z,58.70
2019-04-01T16:15:10.188Z,58.60
2019-04-01T16:17:39.376Z,58.50
2019-04-01T16:20:08.614Z,58.70
2019-04-01T16:22:37.839Z,58.00
2019-04-01T16:25:07.767Z,58.80
2019-04-01T16:27:37.144Z,58.20
2019-04-01T16:30:06.392Z,58.50
2019-04-01T16:32:36.191Z,57.90
2019-04-01T16:35:05.837Z,58.30
2019-04-01T16:37:35.182Z,58.20
2019-04-01T16:40:06.009Z,57.80
2019-04-01T16:42:35.599Z,57.90
2019-04-01T16:45:06.747Z,58.20
2019-04-01T16:47:36.069Z,58.20
2019-04-01T16:50:06.704Z,57.80
2019-04-01T16:52:35.628Z,57.50
2019-04-01T16:55:07.889Z,57.70
2019-04-01T16:57:37.263Z,57.80
2019-04-01T17:00:08.127Z,57.70
2019-04-01T17:02:37.499Z,57.60
2019-04-01T17:05:07.318Z,57.90
2019-04-01T17:07:36.711Z,58.00
2019-04-01T17:10:08.173Z,58.70
2019-04-01T17:12:37.092Z,57.90
2019-04-01T17:15:06.768Z,58.10
2019-04-01T17:17:35.648Z,58.30
2019-04-01T17:20:05.277Z,58.20
2019-04-01T17:22:34.564Z,58.50
2019-04-01T17:25:03.699Z,58.20
2019-04-01T17:27:32.625Z,58.00
2019-04-01T17:30:01.959Z,57.50
2019-04-01T17:32:31.764Z,57.40
2019-04-01T17:35:00.669Z,57.50
2019-04-01T17:37:30.582Z,58.00
2019-04-01T17:39:59.625Z,58.00
2019-04-01T17:42:28.884Z,58.50
2019-04-01T17:45:00.684Z,58.10
2019-04-01T17:47:32.881Z,58.50
2019-04-01T17:50:01.968Z,57.90
2019-04-01T17:52:30.860Z,58.40
2019-04-01T17:54:59.976Z,58.60
2019-04-01T17:57:29.979Z,58.70
2019-04-01T17:59:58.956Z,58.60
2019-04-01T18:02:43.239Z,58.70
2019-04-01T18:05:15.640Z,59.00
2019-04-01T18:07:45.472Z,58.90
2019-04-01T18:10:15.961Z,59.20
2019-04-01T18:12:45.596Z,59.50
2019-04-01T18:15:16.138Z,59.90
2019-04-01T18:17:45.508Z,59.90
2019-04-01T18:20:14.605Z,59.90
2019-04-01T18:22:44.065Z,60.60
2019-04-01T18:25:13.929Z,60.30
2019-04-01T18:27:44.218Z,60.40
2019-04-01T18:30:14.087Z,60.50
2019-04-01T18:32:43.205Z,60.80
2019-04-01T18:35:12.416Z,60.60
2019-04-01T18:37:41.469Z,61.10
2019-04-01T18:40:11.064Z,60.80
2019-04-01T18:42:40.200Z,61.40
2019-04-01T18:45:09.443Z,61.20
2019-04-01T18:47:39.097Z,61.80
2019-04-01T18:50:08.633Z,62.20
2019-04-01T18:52:38.371Z,61.40
2019-04-01T18:55:08.184Z,61.20
2019-04-01T18:57:38.042Z,61.90
2019-04-01T19:00:08.192Z,61.20
2019-04-01T19:02:37.771Z,62.60
2019-04-01T19:05:06.819Z,62.00
2019-04-01T19:07:35.838Z,61.70
2019-04-01T19:10:06.765Z,62.10
2019-04-01T19:12:36.358Z,61.60
2019-04-01T19:15:06.477Z,62.30
2019-04-01T19:17:35.427Z,63.30
2019-04-01T19:20:05.841Z,62.70
2019-04-01T19:22:35.232Z,62.80
2019-04-01T19:25:04.972Z,63.60
2019-04-01T19:27:34.146Z,62.90
2019-04-01T19:30:03.008Z,64.60
2019-04-01T19:32:32.435Z,63.70
2019-04-01T19:35:01.656Z,63.90
2019-04-01T19:37:33.808Z,64.40
2019-04-01T19:40:02.920Z,64.10
2019-04-01T19:42:32.316Z,64.70
2019-04-01T19:45:01.328Z,64.90
2019-04-01T19:47:30.440Z,64.50
2019-04-01T19:49:59.992Z,64.30
2019-04-01T19:52:28.876Z,64.40
2019-04-01T19:54:58.167Z,63.40
2019-04-01T19:57:28.143Z,63.90
2019-04-01T19:59:57.701Z,63.30
2019-04-01T20:02:27.472Z,62.60
2019-04-01T20:04:56.690Z,62.70
2019-04-01T20:07:25.683Z,63.00
2019-04-01T20:09:54.796Z,63.30
2019-04-01T20:12:23.584Z,63.30
2019-04-01T20:14:52.387Z,63.30
2019-04-01T20:17:21.596Z,63.20
2019-04-01T20:19:50.403Z,64.00
2019-04-01T20:22:19.611Z,64.30
2019-04-01T20:24:48.572Z,64.00
2019-04-01T20:27:20.557Z,63.80
2019-04-01T20:29:48.853Z,64.20
2019-04-01T20:32:19.963Z,65.00
2019-04-01T20:34:56.851Z,65.90
2019-04-01T20:37:19.016Z,66.40
2019-04-01T20:39:47.887Z,67.00
2019-04-01T20:42:17.475Z,67.50
2019-04-01T20:44:47.472Z,68.60
2019-04-01T20:47:16.953Z,69.50
2019-04-01T20:49:46.481Z,70.10
2019-04-01T20:52:15.559Z,70.60
2019-04-01T20:54:45.193Z,71.80
2019-04-01T20:57:14.361Z,72.30
2019-04-01T20:59:43.163Z,71.70
